Aviation Digital Data Service (ADDS)

Output produced by METARs form (1906 UTC 24 April 2017)
found at http://bcaws.aviationweather.gov/adds/metars/
 
METAR text: KRHV 241847Z 31006KT 10SM OVC028 16/09 A3012
Conditions at: KRHV (SAN JOSE/REID , CA, US) observed 1847 UTC 24 April 2017
Temperature: 16.0°C (61°F)
Dewpoint: 9.0°C (48°F) [RH = 63%]
Pressure (altimeter): 30.12 inches Hg (1020.1 mb)
Winds: from the NW (310 degrees) at 7 MPH (6 knots; 3.1 m/s)
Visibility: 10 or more miles (16+ km)
Ceiling: 2800 feet AGL
Clouds: overcast cloud deck at 2800 feet AGL
Weather: no significant weather observed at this time